Time;durP1;ratioP1;P1;durP2;ratioP2;P2;SDS_P1;SDS_P2;PMS_P1;PMS_P2;Temp;Humidity;BMP_temperature;BMP_pressure;BME280_temperature;BME280_humidity;BME280_pressure;Samples;Min_cycle;Max_cycle;Signal;HPM_P1;HPM_P2
2023/10/24 00:01:25;;;;;;;6.15;3.53;;;;;;;12.10;100.00;101197.25;5052724;28;20135;-77
2023/10/24 00:03:50;;;;;;;5.85;3.78;;;;;;;12.17;100.00;101174.66;5070162;28;20477;-77
2023/10/24 00:06:16;;;;;;;7.25;3.67;;;;;;;11.84;100.00;101147.53;5069738;28;20055;-78
2023/10/24 00:08:41;;;;;;;6.18;4.00;;;;;;;12.10;100.00;101191.84;5052408;28;20036;-77
2023/10/24 00:11:07;;;;;;;4.78;3.60;;;;;;;11.99;100.00;101180.59;5068669;28;20074;-77
2023/10/24 00:13:32;;;;;;;3.58;3.28;;;;;;;12.05;100.00;101195.13;5058067;28;20025;-77
2023/10/24 00:15:58;;;;;;;5.20;3.55;;;;;;;11.97;100.00;101169.16;5053282;28;20060;-77
2023/10/24 00:18:27;;;;;;;3.00;2.70;;;;;;;12.32;100.00;101200.69;5054397;28;20102;-77
2023/10/24 00:20:53;;;;;;;3.13;2.75;;;;;;;12.32;100.00;101177.22;5069244;28;20064;-78
2023/10/24 00:23:19;;;;;;;4.07;3.00;;;;;;;12.47;100.00;101204.06;5053374;28;20491;-77
2023/10/24 00:25:44;;;;;;;6.65;2.92;;;;;;;12.17;100.00;101190.84;5068007;28;20054;-77
2023/10/24 00:28:10;;;;;;;3.75;2.72;;;;;;;12.17;100.00;101195.41;5068444;28;20061;-78
2023/10/24 00:30:39;;;;;;;3.65;2.80;;;;;;;12.17;100.00;101200.81;5052946;28;20021;-78
2023/10/24 00:33:04;;;;;;;5.82;2.85;;;;;;;12.13;100.00;101189.59;5070008;28;20040;-78
2023/10/24 00:35:30;;;;;;;3.65;2.65;;;;;;;12.13;100.00;101195.00;5056266;28;20024;-77
2023/10/24 00:37:56;;;;;;;4.72;2.83;;;;;;;12.00;100.00;101194.91;5068178;28;20123;-78
2023/10/24 00:40:21;;;;;;;3.75;2.78;;;;;;;11.99;100.00;101185.16;5051651;28;20029;-77
2023/10/24 00:42:47;;;;;;;7.18;2.78;;;;;;;12.07;100.00;101192.25;5068894;28;20159;-77
2023/10/24 00:45:13;;;;;;;4.15;2.90;;;;;;;12.18;100.00;101202.47;5069255;28;20036;-77
2023/10/24 00:47:39;;;;;;;4.40;3.05;;;;;;;11.96;100.00;101199.06;5069934;28;20025;-77
2023/10/24 00:50:07;;;;;;;3.95;3.00;;;;;;;12.06;100.00;101204.09;5053420;28;20048;-77
2023/10/24 00:52:34;;;;;;;4.35;3.00;;;;;;;12.17;100.00;101201.63;5052242;28;20025;-77
2023/10/24 00:54:59;;;;;;;3.65;2.70;;;;;;;12.02;100.00;101184.78;5059089;28;20033;-77
2023/10/24 00:57:25;;;;;;;3.97;2.97;;;;;;;12.12;100.00;101209.53;5055224;28;20106;-77
2023/10/24 00:59:52;;;;;;;3.72;3.10;;;;;;;12.14;100.00;101196.66;5051538;28;20032;-77
2023/10/24 01:02:18;;;;;;;4.57;2.90;;;;;;;12.06;100.00;101177.13;5068230;28;20071;-78
2023/10/24 01:04:44;;;;;;;5.32;3.00;;;;;;;11.84;100.00;101182.56;5068317;28;20052;-77
2023/10/24 01:07:09;;;;;;;5.72;3.40;;;;;;;12.16;100.00;101205.38;5067727;28;20039;-77
2023/10/24 01:09:35;;;;;;;6.15;3.25;;;;;;;12.25;100.00;101192.56;5051191;28;20037;-77
2023/10/24 01:12:01;;;;;;;4.63;3.17;;;;;;;12.20;100.00;101200.41;5067395;28;20495;-77
2023/10/24 01:14:27;;;;;;;4.05;3.10;;;;;;;11.88;100.00;101174.91;5051916;28;20025;-77
2023/10/24 01:16:52;;;;;;;4.78;3.67;;;;;;;11.96;100.00;101182.88;5034349;28;20514;-77
2023/10/24 01:19:18;;;;;;;4.63;3.55;;;;;;;11.92;100.00;101190.53;5070737;28;20116;-77
2023/10/24 01:21:45;;;;;;;5.68;3.28;;;;;;;11.79;100.00;101182.31;5068449;28;20403;-77
2023/10/24 01:24:15;;;;;;;4.20;3.17;;;;;;;11.98;100.00;101196.97;5068799;28;20059;-77
2023/10/24 01:26:42;;;;;;;4.05;3.00;;;;;;;11.61;100.00;101177.41;5052776;28;20082;-77
2023/10/24 01:29:08;;;;;;;3.58;2.72;;;;;;;11.83;100.00;101193.53;5067344;28;20193;-78
2023/10/24 01:31:34;;;;;;;3.40;2.60;;;;;;;11.90;100.00;101195.28;5051185;28;20044;-77
2023/10/24 01:33:59;;;;;;;4.07;2.72;;;;;;;11.92;100.00;101198.63;5050676;28;20033;-78
2023/10/24 01:36:25;;;;;;;5.50;3.03;;;;;;;11.89;100.00;101190.09;5051989;28;20037;-78
2023/10/24 01:38:50;;;;;;;5.70;2.72;;;;;;;11.73;100.00;101197.41;5055248;28;20029;-77
2023/10/24 01:41:16;;;;;;;3.28;2.58;;;;;;;11.76;100.00;101190.81;5051183;28;20025;-77
2023/10/24 01:43:42;;;;;;;3.45;2.72;;;;;;;11.82;100.00;101197.25;5067920;28;20028;-77
2023/10/24 01:46:07;;;;;;;4.00;2.90;;;;;;;11.88;100.00;101186.53;5067546;28;20028;-77
2023/10/24 01:48:32;;;;;;;8.25;2.78;;;;;;;11.86;100.00;101198.56;5051023;28;20509;-77
2023/10/24 01:50:58;;;;;;;4.18;2.58;;;;;;;11.95;100.00;101195.53;5067121;28;20037;-78
2023/10/24 01:53:24;;;;;;;4.38;3.28;;;;;;;11.86;100.00;101193.19;5066540;28;20462;-77
2023/10/24 01:55:49;;;;;;;3.88;2.90;;;;;;;11.74;100.00;101196.38;5049770;28;20025;-77
2023/10/24 01:58:14;;;;;;;4.32;3.30;;;;;;;11.60;100.00;101175.75;5066378;28;20479;-78
2023/10/24 02:00:40;;;;;;;5.40;3.45;;;;;;;11.54;100.00;101187.31;5066409;28;20116;-78
2023/10/24 02:03:05;;;;;;;4.53;3.25;;;;;;;11.84;100.00;101190.66;5066328;28;20028;-78
2023/10/24 02:05:31;;;;;;;5.85;3.20;;;;;;;11.23;100.00;101139.22;5065992;28;20041;-78
2023/10/24 02:07:56;;;;;;;5.78;3.40;;;;;;;11.86;100.00;101196.72;5049616;28;20116;-79
2023/10/24 02:10:22;;;;;;;4.82;3.28;;;;;;;11.91;100.00;101196.94;5066491;28;20036;-77
2023/10/24 02:12:47;;;;;;;5.88;3.38;;;;;;;11.86;100.00;101193.19;5051114;28;20391;-79
2023/10/24 02:15:13;;;;;;;5.32;3.28;;;;;;;11.93;100.00;101191.34;5050951;28;20099;-78
2023/10/24 02:17:41;;;;;;;5.95;3.50;;;;;;;11.59;100.00;101198.38;5049741;28;20496;-78
2023/10/24 02:20:08;;;;;;;5.88;3.35;;;;;;;11.64;100.00;101195.91;5050167;28;20032;-78
2023/10/24 02:22:33;;;;;;;3.35;2.92;;;;;;;11.82;100.00;101202.63;5051356;28;20135;-78
2023/10/24 02:24:59;;;;;;;5.13;3.55;;;;;;;11.76;100.00;101188.09;5050181;28;20104;-78
2023/10/24 02:27:24;;;;;;;5.32;3.60;;;;;;;11.82;100.00;101190.03;5067414;28;20108;-78
2023/10/24 02:29:50;;;;;;;5.13;3.70;;;;;;;11.68;100.00;101188.25;5050030;28;20144;-78
2023/10/24 02:32:15;;;;;;;4.50;3.17;;;;;;;11.73;100.00;101194.72;5050830;28;20048;-78
2023/10/24 02:34:41;;;;;;;4.32;2.95;;;;;;;11.52;100.00;101187.53;5051719;28;20029;-78
2023/10/24 02:37:06;;;;;;;4.32;3.25;;;;;;;11.08;100.00;101088.13;5053889;28;20411;-78
2023/10/24 02:39:31;;;;;;;4.93;3.63;;;;;;;11.56;100.00;101187.16;5054149;28;20108;-78
2023/10/24 02:41:58;;;;;;;5.03;2.90;;;;;;;11.55;100.00;101185.47;5070436;28;20033;-78
2023/10/24 02:44:25;;;;;;;5.00;2.90;;;;;;;11.61;100.00;101180.13;5071681;28;20137;-77
2023/10/24 02:46:50;;;;;;;5.13;3.00;;;;;;;11.58;100.00;101185.91;5071610;28;20492;-78
2023/10/24 02:49:19;;;;;;;4.03;2.83;;;;;;;11.38;100.00;101160.66;5055717;28;20032;-78
2023/10/24 02:51:44;;;;;;;4.13;2.90;;;;;;;11.63;100.00;101191.53;5071769;28;20029;-78
2023/10/24 02:54:10;;;;;;;3.55;2.60;;;;;;;11.16;100.00;101106.84;5072578;28;20095;-78
2023/10/24 02:56:35;;;;;;;6.57;2.92;;;;;;;11.61;100.00;101180.13;5070691;28;20044;-78
2023/10/24 02:59:01;;;;;;;3.25;2.70;;;;;;;11.49;100.00;101176.31;5069915;28;20464;-78
2023/10/24 03:01:27;;;;;;;4.28;2.50;;;;;;;11.51;100.00;101172.38;5069817;28;20033;-78
2023/10/24 03:03:52;;;;;;;4.03;2.65;;;;;;;11.66;100.00;101180.38;5069847;28;20037;-78
2023/10/24 03:06:19;;;;;;;4.15;2.40;;;;;;;11.74;100.00;101184.75;5053548;28;20031;-78
2023/10/24 03:08:45;;;;;;;3.63;2.47;;;;;;;11.82;100.00;101181.06;5053705;28;20029;-78
2023/10/24 03:11:11;;;;;;;3.90;2.08;;;;;;;11.91;100.00;101188.84;5070096;28;20392;-78
2023/10/24 03:13:36;;;;;;;2.65;1.83;;;;;;;11.63;100.00;101161.91;5053777;28;20025;-78
2023/10/24 03:16:05;;;;;;;2.42;1.83;;;;;;;12.00;100.00;101184.13;5069953;28;20044;-78
2023/10/24 03:18:33;;;;;;;2.05;1.85;;;;;;;11.87;100.00;101184.06;5069894;28;20037;-78
2023/10/24 03:20:59;;;;;;;3.65;1.80;;;;;;;11.90;100.00;101183.66;5052603;28;20546;-78
2023/10/24 03:23:25;;;;;;;3.38;1.50;;;;;;;11.96;100.00;101189.09;5068482;28;20124;-78
2023/10/24 03:25:52;;;;;;;4.07;1.52;;;;;;;11.76;100.00;101170.06;5069528;28;20127;-78
2023/10/24 03:28:17;;;;;;;2.90;1.58;;;;;;;12.00;100.00;101194.91;5069407;28;20027;-78
2023/10/24 03:30:43;;;;;;;4.07;1.40;;;;;;;11.85;100.00;101159.97;5069322;28;20120;-78
2023/10/24 03:33:08;;;;;;;2.53;1.60;;;;;;;11.73;100.00;101167.75;5069487;28;20025;-78
2023/10/24 03:35:34;;;;;;;2.83;1.52;;;;;;;11.95;100.00;101175.78;5068937;28;20127;-78
2023/10/24 03:38:01;;;;;;;5.13;1.40;;;;;;;11.85;100.00;101181.53;5054157;28;20029;-78
2023/10/24 03:40:26;;;;;;;2.65;1.10;;;;;;;11.69;100.00;101171.91;5069237;28;20078;-78
2023/10/24 03:42:53;;;;;;;2.20;1.23;;;;;;;11.90;100.00;101189.88;5069246;28;20158;-78
2023/10/24 03:45:18;;;;;;;2.55;1.50;;;;;;;11.73;100.00;101189.34;5068007;28;20025;-78
2023/10/24 03:47:44;;;;;;;1.55;1.35;;;;;;;11.68;100.00;101181.00;5053347;28;20029;-78
2023/10/24 03:50:09;;;;;;;2.72;1.40;;;;;;;11.85;100.00;101183.41;5053788;28;20369;-78
2023/10/24 03:52:35;;;;;;;1.95;1.73;;;;;;;11.95;100.00;101184.75;5068747;28;20512;-78
2023/10/24 03:55:00;;;;;;;3.58;1.92;;;;;;;12.00;100.00;101181.44;5067852;28;20064;-78
2023/10/24 03:57:25;;;;;;;3.47;1.92;;;;;;;11.90;100.00;101183.66;5069625;28;20053;-78
2023/10/24 03:59:51;;;;;;;2.50;2.00;;;;;;;11.50;100.00;101122.22;5068757;28;20033;-78
2023/10/24 04:02:18;;;;;;;3.58;2.40;;;;;;;11.79;100.00;101181.47;5068277;28;20057;-78
2023/10/24 04:04:43;;;;;;;3.13;2.30;;;;;;;11.85;100.00;101186.09;5068626;28;20029;-78
2023/10/24 04:07:09;;;;;;;4.10;2.58;;;;;;;11.79;100.00;101179.63;5069191;28;20549;-78
2023/10/24 04:09:34;;;;;;;4.53;2.60;;;;;;;11.81;100.00;101177.56;5052614;28;20495;-78
2023/10/24 04:12:00;;;;;;;3.95;2.80;;;;;;;11.77;100.00;101181.69;5069056;28;20029;-78
2023/10/24 04:14:25;;;;;;;3.97;2.78;;;;;;;11.81;100.00;101174.03;5052358;28;20426;-77
2023/10/24 04:16:52;;;;;;;2.63;2.42;;;;;;;11.66;100.00;101156.09;5068379;28;20060;-77
2023/10/24 04:19:17;;;;;;;6.07;2.78;;;;;;;11.86;100.00;101182.41;5067039;28;20535;-78
2023/10/24 04:21:43;;;;;;;4.35;2.67;;;;;;;11.75;100.00;101186.41;5049984;28;20029;-78
2023/10/24 04:24:09;;;;;;;4.65;2.50;;;;;;;11.76;100.00;101177.31;5066443;28;20483;-79
2023/10/24 04:26:35;;;;;;;2.50;2.30;;;;;;;11.60;100.00;101183.84;5050526;28;20353;-79
2023/10/24 04:29:01;;;;;;;3.45;2.30;;;;;;;11.56;100.00;101177.19;5071934;28;20033;-79
2023/10/24 04:31:26;;;;;;;4.18;2.50;;;;;;;11.71;100.00;101185.16;5052585;28;20089;-77
2023/10/24 04:33:52;;;;;;;2.67;2.30;;;;;;;11.71;100.00;101177.91;5067777;28;20025;-78
2023/10/24 04:36:17;;;;;;;3.45;2.03;;;;;;;11.71;100.00;101180.59;5068121;28;20037;-77
2023/10/24 04:38:42;;;;;;;2.55;2.30;;;;;;;11.79;100.00;101181.47;5068491;28;20056;-81
2023/10/24 04:41:08;;;;;;;2.50;1.75;;;;;;;11.44;100.00;101176.06;5068555;28;20087;-78
2023/10/24 04:43:35;;;;;;;5.13;2.20;;;;;;;11.56;100.00;101181.75;5068736;28;20043;-81
2023/10/24 04:46:00;;;;;;;2.72;1.75;;;;;;;11.06;100.00;101144.06;5068387;28;20390;-78
2023/10/24 04:48:26;;;;;;;2.00;1.80;;;;;;;11.33;100.00;101171.22;5068428;28;20033;-78
2023/10/24 04:50:51;;;;;;;2.97;1.70;;;;;;;11.45;100.00;101175.03;5068564;28;20032;-78
2023/10/24 04:53:17;;;;;;;1.75;1.50;;;;;;;11.47;100.00;101173.81;5086461;28;20403;-78
2023/10/24 04:55:43;;;;;;;3.05;1.60;;;;;;;11.60;100.00;101178.47;5057919;28;20033;-78
2023/10/24 04:58:09;;;;;;;3.33;1.80;;;;;;;11.52;100.00;101178.59;5070296;28;20140;-78
2023/10/24 05:00:35;;;;;;;5.38;1.50;;;;;;;11.52;100.00;101162.41;5037270;28;20035;-78
2023/10/24 05:03:01;;;;;;;1.63;1.27;;;;;;;11.52;100.00;101175.91;5055068;28;20028;-79
2023/10/24 05:05:27;;;;;;;2.00;1.20;;;;;;;11.36;100.00;101163.56;5071695;28;20695;-78
2023/10/24 05:07:53;;;;;;;3.22;1.20;;;;;;;11.35;100.00;101137.63;5054579;28;20032;-78
2023/10/24 05:10:19;;;;;;;3.83;1.30;;;;;;;11.67;100.00;101171.25;5072336;28;20025;-78
2023/10/24 05:12:45;;;;;;;1.35;1.10;;;;;;;11.47;100.00;101179.19;5070749;28;20046;-77
2023/10/24 05:15:10;;;;;;;2.15;1.00;;;;;;;11.66;100.00;101177.69;5069117;28;20052;-78
2023/10/24 05:17:36;;;;;;;1.52;1.20;;;;;;;11.77;100.00;101174.41;5068908;28;20043;-78
2023/10/24 05:20:03;;;;;;;3.10;0.95;;;;;;;11.86;100.00;101163.53;5069766;28;20391;-79
2023/10/24 05:22:29;;;;;;;3.45;0.98;;;;;;;11.85;100.00;101178.00;5070080;28;20454;-79
2023/10/24 05:24:54;;;;;;;1.50;0.93;;;;;;;11.76;100.00;101174.63;5069282;28;20056;-79
2023/10/24 05:27:20;;;;;;;2.17;0.80;;;;;;;11.74;100.00;101174.81;5069849;28;20380;-78
2023/10/24 05:29:46;;;;;;;3.63;0.90;;;;;;;11.88;100.00;101172.22;5070410;28;20491;-78
2023/10/24 05:32:11;;;;;;;1.40;0.80;;;;;;;11.73;100.00;101164.25;5070475;28;20036;-78
2023/10/24 05:34:38;;;;;;;1.80;0.75;;;;;;;11.96;100.00;101166.69;5071547;28;20033;-79
2023/10/24 05:37:04;;;;;;;3.55;0.70;;;;;;;11.93;100.00;101159.00;5071748;28;20078;-78
2023/10/24 05:39:30;;;;;;;0.80;0.47;;;;;;;11.83;100.00;101158.50;5087083;28;20024;-78
2023/10/24 05:41:56;;;;;;;0.93;0.40;;;;;;;11.75;100.00;101171.09;5070731;28;20418;-79
2023/10/24 05:44:23;;;;;;;0.85;0.50;;;;;;;11.65;100.00;101132.84;5087422;28;20032;-79
2023/10/24 05:46:49;;;;;;;1.42;0.60;;;;;;;11.99;100.00;101179.78;5070637;28;20077;-79
2023/10/24 05:49:15;;;;;;;1.70;0.50;;;;;;;11.84;100.00;101179.03;5070328;28;20056;-79
2023/10/24 05:51:40;;;;;;;2.05;0.47;;;;;;;11.60;100.00;101183.03;5054085;28;20106;-78
2023/10/24 05:54:05;;;;;;;1.15;0.50;;;;;;;11.79;100.00;101176.94;5070694;28;20079;-79
2023/10/24 05:56:32;;;;;;;0.98;0.45;;;;;;;11.82;100.00;101181.06;5070379;28;20028;-78
2023/10/24 05:58:58;;;;;;;2.25;0.65;;;;;;;11.62;100.00;101172.84;5071657;28;20071;-79
2023/10/24 06:01:24;;;;;;;0.75;0.60;;;;;;;11.59;100.00;101166.03;5070371;28;20491;-78
2023/10/24 06:03:49;;;;;;;0.82;0.52;;;;;;;11.72;100.00;101174.19;5053699;28;20117;-78
2023/10/24 06:06:15;;;;;;;1.65;0.40;;;;;;;11.60;100.00;101147.97;5087421;28;20029;-79
2023/10/24 06:08:40;;;;;;;0.45;0.40;;;;;;;11.72;100.00;101184.97;5053092;28;20028;-78
2023/10/24 06:11:06;;;;;;;3.85;0.50;;;;;;;11.66;100.00;101174.97;5070580;28;20035;-79
2023/10/24 06:13:31;;;;;;;1.00;0.38;;;;;;;11.51;100.00;101174.25;5071178;28;20119;-78
2023/10/24 06:16:11;;;;;;;0.45;0.40;;;;;;;11.64;100.00;101185.13;5053270;28;20086;-79
2023/10/24 06:18:37;;;;;;;2.15;0.80;;;;;;;11.43;100.00;101177.09;5069628;28;20132;-79
2023/10/24 06:21:07;;;;;;;1.05;0.40;;;;;;;11.58;100.00;101176.97;5069901;28;20779;-79
2023/10/24 06:23:33;;;;;;;1.60;0.50;;;;;;;11.48;100.00;101169.25;5070008;28;20024;-79
2023/10/24 06:25:59;;;;;;;0.60;0.40;;;;;;;11.32;100.00;101132.63;5069896;28;20124;-79
2023/10/24 06:28:24;;;;;;;0.73;0.43;;;;;;;11.62;100.00;101172.84;5071250;28;20487;-78
2023/10/24 06:30:57;;;;;;;0.50;0.40;;;;;;;11.79;100.00;101166.16;5069767;28;20078;-79
2023/10/24 06:33:25;;;;;;;0.40;0.30;;;;;;;11.71;100.00;101186.00;5070950;28;20028;-79
2023/10/24 06:35:51;;;;;;;0.47;0.40;;;;;;;11.75;100.00;101184.59;5086772;28;20039;-79
2023/10/24 06:38:17;;;;;;;0.90;0.50;;;;;;;11.61;100.00;101181.97;5052843;28;20107;-79
2023/10/24 06:41:20;;;;;;;0.70;0.32;;;;;;;11.70;100.00;101187.03;5037700;28;20082;-80
2023/10/24 06:43:46;;;;;;;1.25;0.28;;;;;;;11.55;100.00;101186.28;5072502;28;20025;-79
2023/10/24 06:46:12;;;;;;;0.90;0.30;;;;;;;11.76;100.00;101194.31;5053522;28;20040;-79
2023/10/24 06:48:37;;;;;;;1.23;0.30;;;;;;;11.94;100.00;101190.31;5071336;28;20036;-78
2023/10/24 06:51:03;;;;;;;1.35;0.40;;;;;;;11.82;100.00;101190.03;5072738;28;20033;-79
2023/10/24 06:53:28;;;;;;;1.40;0.30;;;;;;;11.77;100.00;101195.97;5070331;28;20025;-79
2023/10/24 06:56:01;;;;;;;0.90;0.32;;;;;;;11.86;100.00;101185.09;5036852;28;20044;-79
2023/10/24 06:58:27;;;;;;;0.55;0.40;;;;;;;11.72;100.00;101173.34;5086171;28;20048;-79
2023/10/24 07:00:53;;;;;;;0.32;0.30;;;;;;;11.80;100.00;101199.34;5069978;28;20594;-79
2023/10/24 07:03:18;;;;;;;2.33;0.60;;;;;;;11.75;100.00;101192.69;5086686;28;20123;-79
2023/10/24 07:05:50;;;;;;;0.47;0.30;;;;;;;11.49;100.00;101165.53;5052891;28;20120;-79
2023/10/24 07:08:15;;;;;;;0.63;0.32;;;;;;;11.89;100.00;101199.00;5069251;28;20025;-79
2023/10/24 07:10:42;;;;;;;1.05;0.30;;;;;;;11.82;100.00;101195.41;5052523;28;20029;-79
2023/10/24 07:13:07;;;;;;;0.85;0.30;;;;;;;12.10;100.00;101195.38;5071013;28;20033;-79
2023/10/24 07:15:33;;;;;;;4.32;0.30;;;;;;;11.88;100.00;101169.53;5071219;28;20413;-79
2023/10/24 07:17:58;;;;;;;1.08;0.30;;;;;;;11.80;100.00;101193.94;5070414;28;20398;-78
2023/10/24 07:20:24;;;;;;;1.48;0.40;;;;;;;11.94;100.00;101195.72;5070329;28;20032;-79
2023/10/24 07:22:49;;;;;;;0.60;0.32;;;;;;;12.05;100.00;101195.13;5073090;28;20495;-79
2023/10/24 07:25:14;;;;;;;0.80;0.30;;;;;;;12.08;100.00;101197.44;5039778;28;20043;-79
2023/10/24 07:27:40;;;;;;;0.93;0.30;;;;;;;11.89;100.00;101199.00;5075085;28;20029;-79
2023/10/24 07:30:09;;;;;;;0.63;0.28;;;;;;;12.03;100.00;101197.22;5074111;28;20033;-79
2023/10/24 07:32:34;;;;;;;1.48;0.20;;;;;;;12.13;100.00;101197.69;5073797;28;20036;-79
2023/10/24 07:35:00;;;;;;;0.47;0.28;;;;;;;12.08;100.00;101196.59;5056612;28;20089;-78
2023/10/24 07:37:25;;;;;;;0.50;0.20;;;;;;;11.94;100.00;101153.38;5073469;28;20028;-78
2023/10/24 07:39:51;;;;;;;1.15;0.20;;;;;;;12.48;100.00;101192.22;5056262;28;20033;-79
2023/10/24 07:42:17;;;;;;;2.35;0.30;;;;;;;12.20;100.00;101184.22;5089887;28;20560;-79
2023/10/24 07:44:42;;;;;;;0.85;0.30;;;;;;;12.06;100.00;101191.44;5090089;28;20082;-79
2023/10/24 07:47:07;;;;;;;2.70;0.30;;;;;;;11.87;100.00;101173.28;5056189;28;20044;-79
2023/10/24 07:49:36;;;;;;;8.20;1.35;;;;;;;11.82;100.00;101192.72;5056017;28;20036;-79
2023/10/24 07:52:03;;;;;;;0.30;0.20;;;;;;;11.99;100.00;101198.66;5072897;28;20031;-79
2023/10/24 07:54:30;;;;;;;0.13;0.10;;;;;;;12.15;100.00;101197.47;5072518;28;20078;-79
2023/10/24 07:56:55;;;;;;;0.20;0.10;;;;;;;11.83;100.00;101167.41;5073709;28;20040;-79
2023/10/24 07:59:21;;;;;;;0.20;0.10;;;;;;;12.09;100.00;101158.66;5056231;28;20037;-79
2023/10/24 08:01:46;;;;;;;0.10;0.10;;;;;;;12.48;100.00;101196.78;5089597;28;20380;-79
2023/10/24 08:04:13;;;;;;;0.55;0.10;;;;;;;12.27;100.00;101195.88;5056174;28;20056;-79
2023/10/24 08:06:38;;;;;;;0.30;0.20;;;;;;;12.23;100.00;101192.75;5055411;28;20093;-79
2023/10/24 08:09:04;;;;;;;0.28;0.20;;;;;;;12.42;100.00;101198.44;5055088;28;20036;-79
2023/10/24 08:11:29;;;;;;;0.35;0.10;;;;;;;12.12;100.00;101196.03;5071941;28;20040;-79
2023/10/24 08:13:55;;;;;;;0.30;0.10;;;;;;;12.45;100.00;101204.28;5073603;28;20033;-75
2023/10/24 08:16:20;;;;;;;0.40;0.10;;;;;;;12.30;100.00;101194.66;5056557;28;20033;-79
2023/10/24 08:18:46;;;;;;;1.55;0.30;;;;;;;12.33;100.00;101196.94;5056897;28;20040;-80
2023/10/24 08:21:14;;;;;;;0.40;0.10;;;;;;;12.02;100.00;101192.88;5061288;28;20033;-79
2023/10/24 08:23:40;;;;;;;0.40;0.17;;;;;;;12.11;100.00;101164.66;5079097;28;20036;-79
2023/10/24 08:26:05;;;;;;;0.17;0.10;;;;;;;12.44;100.00;101201.75;5072957;28;20518;-79
2023/10/24 08:28:31;;;;;;;0.73;0.20;;;;;;;12.39;100.00;101205.06;5055930;28;20027;-79
2023/10/24 08:30:58;;;;;;;0.68;0.20;;;;;;;12.21;100.00;101194.81;5056885;28;20522;-80
2023/10/24 08:33:23;;;;;;;1.73;0.15;;;;;;;12.09;100.00;101199.13;5056920;28;20039;-79
2023/10/24 08:35:48;;;;;;;0.47;0.15;;;;;;;12.32;100.00;101200.69;5092638;28;20107;-79
2023/10/24 08:38:14;;;;;;;2.00;0.30;;;;;;;12.04;100.00;101169.19;5059932;28;20037;-79
2023/10/24 08:40:40;;;;;;;0.43;0.10;;;;;;;12.54;100.00;101206.78;5059519;28;20046;-79
2023/10/24 08:43:08;;;;;;;0.40;0.20;;;;;;;12.41;100.00;101191.38;5073009;28;20078;-79
2023/10/24 08:45:35;;;;;;;0.20;0.10;;;;;;;12.63;100.00;101209.09;5072639;28;20032;-80
2023/10/24 08:48:05;;;;;;;0.50;0.20;;;;;;;11.91;100.00;101166.44;5058561;28;20534;-79
2023/10/24 08:50:31;;;;;;;0.98;0.30;;;;;;;12.34;100.00;101214.78;5094663;28;20140;-80
2023/10/24 08:52:57;;;;;;;8.68;5.88;;;;;;;12.66;100.00;101203.31;5077568;28;20033;-79
2023/10/24 08:55:23;;;;;;;17.15;11.57;;;;;;;12.62;100.00;101196.66;5090170;28;20360;-79
2023/10/24 08:57:50;;;;;;;4.10;3.63;;;;;;;12.69;100.00;101218.28;5072383;28;20140;-79
2023/10/24 09:00:16;;;;;;;1.05;0.95;;;;;;;12.69;100.00;101210.16;5055828;28;20036;-79
2023/10/24 09:02:43;;;;;;;0.88;0.40;;;;;;;12.63;100.00;101206.41;5057526;28;20024;-79
2023/10/24 09:05:15;;;;;;;1.33;0.85;;;;;;;12.48;100.00;101199.50;5090429;28;20028;-79
2023/10/24 09:07:41;;;;;;;0.52;0.30;;;;;;;12.62;100.00;101185.03;5055351;28;20127;-80
2023/10/24 09:10:07;;;;;;;0.52;0.40;;;;;;;12.57;100.00;101192.88;5072016;28;20106;-79
2023/10/24 09:12:34;;;;;;;1.45;0.20;;;;;;;12.79;100.00;101204.38;5055445;28;20522;-78
2023/10/24 09:15:01;;;;;;;0.20;0.20;;;;;;;12.83;100.00;101201.06;5085333;28;20025;-79
2023/10/24 09:17:30;;;;;;;2.00;0.30;;;;;;;12.48;100.00;101186.00;5082278;28;20036;-80
2023/10/24 09:19:56;;;;;;;2.20;0.50;;;;;;;12.59;100.00;101204.31;5062420;28;20029;-79
2023/10/24 09:22:22;;;;;;;0.73;0.22;;;;;;;12.52;100.00;101204.31;5071070;28;20040;-79
2023/10/24 09:24:49;;;;;;;0.22;0.20;;;;;;;12.33;100.00;101176.19;5071344;28;20067;-79
2023/10/24 09:27:16;;;;;;;2.95;0.20;;;;;;;12.36;100.00;101200.06;5073048;28;20043;-80
2023/10/24 09:29:42;;;;;;;0.40;0.20;;;;;;;12.33;100.00;101170.78;5072779;28;20056;-79
2023/10/24 09:32:17;;;;;;;0.30;0.20;;;;;;;12.80;100.00;101176.34;5074854;28;20031;-79
2023/10/24 09:34:43;;;;;;;0.93;0.20;;;;;;;12.39;100.00;101194.28;5078675;28;20536;-80
2023/10/24 09:37:10;;;;;;;0.43;0.17;;;;;;;12.44;100.00;101196.34;5074749;28;20016;-80
2023/10/24 09:39:57;;;;;;;1.02;0.20;;;;;;;12.82;100.00;101201.28;5072714;28;20479;-80
2023/10/24 09:42:31;;;;;;;0.60;0.50;;;;;;;13.00;100.00;101196.09;5072869;28;20029;-80
2023/10/24 09:45:07;;;;;;;0.32;0.20;;;;;;;12.62;100.00;101156.16;5055841;28;20484;-79
2023/10/24 09:47:33;;;;;;;0.82;0.20;;;;;;;12.69;100.00;101148.06;5072237;28;20032;-79
2023/10/24 09:50:00;;;;;;;0.10;0.10;;;;;;;12.55;100.00;101198.50;5070644;28;20028;-79
2023/10/24 09:52:28;;;;;;;1.30;0.20;;;;;;;12.51;100.00;101193.69;5070880;28;20052;-80
2023/10/24 09:54:55;;;;;;;1.30;0.20;;;;;;;12.79;100.00;101189.00;5070664;28;20051;-80
2023/10/24 09:57:22;;;;;;;0.70;0.20;;;;;;;12.65;100.00;101188.16;5037911;28;20080;-80
2023/10/24 09:59:54;;;;;;;0.77;0.30;;;;;;;12.93;100.00;101179.06;5053974;28;20480;-79
2023/10/24 10:02:22;;;;;;;0.55;0.20;;;;;;;12.87;100.00;101169.06;5071948;28;20032;-78
2023/10/24 10:04:48;;;;;;;0.30;0.20;;;;;;;13.11;100.00;101165.78;5069861;28;20028;-79
2023/10/24 10:07:16;;;;;;;1.20;0.47;;;;;;;13.11;100.00;101181.13;5069998;28;20025;-78
2023/10/24 10:09:46;;;;;;;0.30;0.20;;;;;;;13.07;100.00;101191.53;5074653;28;20040;-79
2023/10/24 10:12:13;;;;;;;0.50;0.20;;;;;;;13.10;100.00;101174.91;5070664;28;20032;-78
2023/10/24 10:15:02;;;;;;;0.10;0.10;;;;;;;12.83;100.00;101168.66;5069923;28;20024;-79
2023/10/24 10:17:53;;;;;;;0.10;0.10;;;;;;;12.70;100.00;101187.53;5071515;28;20035;-78
2023/10/24 10:20:45;;;;;;;0.20;0.10;;;;;;;12.67;100.00;101172.56;5086984;28;20462;-79
2023/10/24 10:23:36;;;;;;;0.15;0.10;;;;;;;12.56;100.00;101177.72;5065635;28;20036;-79
2023/10/24 10:26:22;;;;;;;0.55;0.20;;;;;;;12.75;100.00;101179.66;5071288;28;20037;-79
2023/10/24 10:29:09;;;;;;;0.32;0.10;;;;;;;12.33;100.00;101180.75;5071713;28;20104;-79
2023/10/24 10:31:37;;;;;;;0.20;0.10;;;;;;;12.39;100.00;101150.28;5070067;28;20074;-78
2023/10/24 10:34:03;;;;;;;1.15;0.20;;;;;;;12.60;100.00;101174.41;5073202;28;20111;-79
2023/10/24 10:36:28;;;;;;;0.10;0.00;;;;;;;12.27;100.00;101184.25;5071694;28;20123;-79
2023/10/24 10:39:00;;;;;;;0.55;0.10;;;;;;;12.71;100.00;101183.78;5054089;28;20032;-78
2023/10/24 10:41:26;;;;;;;0.32;0.10;;;;;;;12.75;99.85;101181.50;5086727;28;20029;-79
2023/10/24 10:43:54;;;;;;;0.77;0.05;;;;;;;12.61;100.00;101183.34;5086985;28;20059;-80
2023/10/24 10:46:24;;;;;;;0.43;0.10;;;;;;;12.50;100.00;101178.53;5073831;28;20431;-79
2023/10/24 10:48:50;;;;;;;0.10;0.10;;;;;;;12.80;99.20;101152.03;5086567;28;20093;-79
2023/10/24 10:51:17;;;;;;;0.30;0.17;;;;;;;12.71;98.96;101164.88;5069312;28;20495;-79
2023/10/24 10:54:08;;;;;;;0.80;0.20;;;;;;;12.91;98.35;101170.31;5069420;28;20039;-79
2023/10/24 10:56:36;;;;;;;0.30;0.30;;;;;;;12.76;97.50;101150.78;5075045;28;20020;-79
2023/10/24 10:59:04;;;;;;;2.28;0.32;;;;;;;12.70;99.73;101168.63;5075217;28;20068;-79
2023/10/24 11:01:42;;;;;;;0.35;0.20;;;;;;;12.83;98.42;101171.34;5090409;28;20085;-78
2023/10/24 11:04:17;;;;;;;1.48;0.20;;;;;;;12.78;96.79;101148.69;5091570;28;20028;-77
2023/10/24 11:06:51;;;;;;;0.28;0.10;;;;;;;12.83;96.77;101159.72;5069075;28;20036;-78
2023/10/24 11:09:20;;;;;;;0.20;0.20;;;;;;;12.69;96.55;101138.09;5090447;28;20024;-78
2023/10/24 11:11:46;;;;;;;0.63;0.20;;;;;;;13.10;96.06;101164.09;5090191;28;20514;-78
2023/10/24 11:14:21;;;;;;;0.10;0.10;;;;;;;12.85;95.06;101109.88;5056737;28;20072;-78
2023/10/24 11:16:50;;;;;;;0.82;0.20;;;;;;;13.26;95.36;101162.06;5073629;28;20028;-77